Time;durP1;ratioP1;P1;durP2;ratioP2;P2;SDS_P1;SDS_P2;PMS_P1;PMS_P2;Temp;Humidity;BMP_temperature;BMP_pressure;BME280_temperature;BME280_humidity;BME280_pressure;Samples;Min_cycle;Max_cycle;Signal;HPM_P1;HPM_P2
2022/07/23 00:00:16;;;;;;;33.13;30.17;;;;;;;19.27;100.00;100994.50;5045350;28;20112;-82
2022/07/23 00:02:43;;;;;;;31.00;28.95;;;;;;;19.17;100.00;101000.63;5043236;28;20149;-82
2022/07/23 00:05:11;;;;;;;29.95;27.23;;;;;;;18.88;100.00;101007.34;5040711;28;20064;-82
2022/07/23 00:07:38;;;;;;;37.58;34.88;;;;;;;19.35;100.00;101018.28;5038817;28;20476;-83
2022/07/23 00:10:06;;;;;;;29.20;26.95;;;;;;;19.49;100.00;101013.28;5048689;28;20056;-84
2022/07/23 00:12:32;;;;;;;29.60;27.17;;;;;;;19.25;100.00;101022.78;5038405;28;20050;-83
2022/07/23 00:14:59;;;;;;;32.38;30.10;;;;;;;19.44;100.00;101029.41;5036847;28;20490;-83
2022/07/23 00:17:29;;;;;;;32.13;29.58;;;;;;;19.43;100.00;101033.97;5043186;28;20109;-83
2022/07/23 00:19:56;;;;;;;35.28;32.65;;;;;;;19.21;100.00;101033.22;5040728;28;20136;-82
2022/07/23 00:22:23;;;;;;;33.60;31.20;;;;;;;19.29;100.00;101030.06;5034301;28;20053;-83
2022/07/23 00:24:50;;;;;;;30.00;27.65;;;;;;;19.10;100.00;101040.41;5035933;28;20052;-83
2022/07/23 00:27:17;;;;;;;29.08;26.55;;;;;;;18.92;100.00;101028.13;5035725;28;20060;-83
2022/07/23 00:29:45;;;;;;;32.85;30.60;;;;;;;19.09;100.00;101029.88;5035435;28;20068;-83
2022/07/23 00:32:11;;;;;;;41.13;38.15;;;;;;;18.70;100.00;101043.47;5040705;28;20119;-83
2022/07/23 00:34:40;;;;;;;41.67;38.85;;;;;;;18.72;100.00;101036.75;5037361;28;20064;-82
2022/07/23 00:37:06;;;;;;;56.08;52.50;;;;;;;18.68;100.00;101034.84;5036857;28;20496;-83
2022/07/23 00:39:33;;;;;;;32.05;29.55;;;;;;;18.08;100.00;101044.56;5037668;28;20060;-84
2022/07/23 00:42:00;;;;;;;33.05;30.65;;;;;;;18.34;100.00;101034.97;5035125;28;20061;-82
2022/07/23 00:44:28;;;;;;;27.60;25.33;;;;;;;18.36;100.00;101037.41;5039899;28;20080;-82
2022/07/23 00:46:57;;;;;;;33.75;31.20;;;;;;;18.16;100.00;101028.03;5037120;28;20057;-82
2022/07/23 00:49:26;;;;;;;30.98;28.27;;;;;;;18.77;100.00;101028.78;5037367;28;20041;-82
2022/07/23 00:51:54;;;;;;;39.72;37.15;;;;;;;18.68;100.00;101024.88;5041240;28;20045;-84
2022/07/23 00:54:23;;;;;;;31.90;29.50;;;;;;;18.25;100.00;101036.47;5042875;28;20046;-83
2022/07/23 00:56:51;;;;;;;38.08;35.65;;;;;;;18.14;100.00;101035.50;5024449;28;20060;-84
2022/07/23 00:59:19;;;;;;;32.72;30.48;;;;;;;18.60;100.00;101028.00;5031733;28;20045;-84
2022/07/23 01:01:48;;;;;;;30.40;28.20;;;;;;;18.12;100.00;101037.63;5039218;28;20045;-83
2022/07/23 01:04:17;;;;;;;28.42;26.13;;;;;;;18.73;100.00;101027.66;5035699;28;20069;-84
2022/07/23 01:06:45;;;;;;;30.10;27.80;;;;;;;18.76;100.00;101021.78;5031027;28;20045;-84
2022/07/23 01:09:14;;;;;;;29.98;27.33;;;;;;;18.65;100.00;101020.00;5038072;28;20073;-84
2022/07/23 01:11:42;;;;;;;25.48;23.38;;;;;;;17.53;100.00;101026.53;5035587;28;20049;-83
2022/07/23 01:14:11;;;;;;;30.98;28.55;;;;;;;18.57;100.00;101023.13;5040318;28;20036;-84
2022/07/23 01:16:40;;;;;;;30.92;28.38;;;;;;;18.61;100.00;101013.50;5036655;28;20053;-83
2022/07/23 01:19:06;;;;;;;28.25;25.75;;;;;;;18.73;100.00;101019.59;5043433;28;20107;-83
2022/07/23 01:21:37;;;;;;;28.55;25.92;;;;;;;18.61;100.00;101009.97;5038085;28;20056;-83
2022/07/23 01:24:07;;;;;;;29.05;26.90;;;;;;;17.76;100.00;101022.84;5032406;28;20045;-83
2022/07/23 01:26:35;;;;;;;29.50;27.33;;;;;;;17.74;100.00;101020.41;5034472;28;20513;-84
2022/07/23 01:29:03;;;;;;;28.35;26.35;;;;;;;18.46;100.00;101016.03;5033749;28;20474;-83
2022/07/23 01:31:30;;;;;;;29.30;27.00;;;;;;;18.36;100.00;101023.94;5036155;28;20052;-84
2022/07/23 01:33:57;;;;;;;31.75;29.58;;;;;;;18.56;100.00;101013.44;5041341;28;20044;-83
2022/07/23 01:36:32;;;;;;;27.88;25.77;;;;;;;18.55;100.00;101019.91;5036210;28;20049;-82
2022/07/23 01:38:59;;;;;;;31.50;29.30;;;;;;;18.23;100.00;101023.25;5036803;28;20057;-83
2022/07/23 01:41:27;;;;;;;33.97;31.58;;;;;;;18.07;100.00;101018.75;5034591;28;20046;-83
2022/07/23 01:43:55;;;;;;;27.38;25.27;;;;;;;18.76;100.00;101015.59;5041798;28;20049;-83
2022/07/23 01:46:22;;;;;;;29.60;27.63;;;;;;;18.90;100.00;101016.78;5037774;28;20059;-84
2022/07/23 01:48:50;;;;;;;29.55;27.48;;;;;;;18.97;100.00;101008.50;5036957;28;20509;-85
2022/07/23 01:51:17;;;;;;;29.92;27.67;;;;;;;18.61;100.00;101021.59;5042186;28;20053;-83
2022/07/23 01:53:44;;;;;;;33.60;31.50;;;;;;;19.21;100.00;101006.31;5036331;28;20061;-84
2022/07/23 01:56:11;;;;;;;29.75;27.70;;;;;;;19.09;100.00;101011.88;5034448;28;20050;-83
2022/07/23 01:58:40;;;;;;;31.63;29.70;;;;;;;19.32;100.00;101007.22;5040726;28;20095;-83
2022/07/23 02:01:07;;;;;;;34.80;32.70;;;;;;;19.32;100.00;101018.00;5122372;23;20141;-82
2022/07/23 02:03:35;;;;;;;30.27;27.25;;;;;;;19.03;100.00;101012.06;4976662;28;20051;-84
2022/07/23 02:06:02;;;;;;;29.52;26.83;;;;;;;19.18;100.00;101015.72;4980380;28;20046;-82
2022/07/23 02:08:29;;;;;;;30.52;28.23;;;;;;;19.36;100.00;101006.44;4978146;28;20471;-83
2022/07/23 02:11:00;;;;;;;30.38;28.17;;;;;;;19.20;100.00;101005.50;4982596;28;20256;-83
2022/07/23 02:13:28;;;;;;;30.25;27.13;;;;;;;19.17;100.00;101006.00;4981819;28;20058;-83
2022/07/23 02:15:56;;;;;;;32.20;30.27;;;;;;;19.13;100.00;101009.47;4981310;28;20058;-83
2022/07/23 02:18:23;;;;;;;27.33;25.38;;;;;;;19.24;100.00;101011.16;4980724;28;20050;-83
2022/07/23 02:20:50;;;;;;;27.73;25.42;;;;;;;19.16;100.00;101009.78;4980326;28;20039;-83
2022/07/23 02:23:17;;;;;;;35.38;33.00;;;;;;;19.29;100.00;101002.34;4975818;28;20050;-82
2022/07/23 02:25:45;;;;;;;37.55;35.35;;;;;;;19.25;100.00;101006.63;4980487;28;20046;-84
2022/07/23 02:28:12;;;;;;;34.58;32.45;;;;;;;19.15;100.00;101013.53;4979793;28;20050;-83
2022/07/23 02:30:39;;;;;;;28.23;25.70;;;;;;;18.80;100.00;100999.75;4976935;28;20062;-82
2022/07/23 02:33:08;;;;;;;30.35;28.35;;;;;;;18.68;100.00;101002.56;4960777;28;20142;-85
2022/07/23 02:35:36;;;;;;;31.42;29.10;;;;;;;18.25;100.00;101013.09;4982524;28;20492;-82
2022/07/23 02:38:03;;;;;;;31.55;29.48;;;;;;;18.03;100.00;101017.59;4976824;28;20066;-84
2022/07/23 02:40:30;;;;;;;31.77;29.67;;;;;;;18.04;100.00;101016.56;4975132;28;20046;-82
2022/07/23 02:42:59;;;;;;;28.92;26.35;;;;;;;18.43;100.00;101011.97;4977115;28;20058;-84
2022/07/23 02:45:26;;;;;;;31.15;29.30;;;;;;;18.58;100.00;101027.47;4971992;28;20423;-83
2022/07/23 02:47:54;;;;;;;33.13;30.58;;;;;;;18.89;100.00;101020.56;4981728;28;20043;-82
2022/07/23 02:50:30;;;;;;;31.38;28.90;;;;;;;18.76;100.00;101023.66;4984967;28;20049;-82
2022/07/23 02:52:58;;;;;;;30.55;28.65;;;;;;;18.81;100.00;101039.03;4982070;28;20054;-81
2022/07/23 02:55:25;;;;;;;28.67;26.48;;;;;;;18.45;100.00;101036.69;4977316;28;20524;-82
2022/07/23 02:57:54;;;;;;;28.58;26.52;;;;;;;18.17;100.00;101044.94;4983055;28;20057;-82
2022/07/23 03:00:21;;;;;;;27.73;25.63;;;;;;;18.01;100.00;101039.38;4982679;28;20034;-83
2022/07/23 03:02:48;;;;;;;27.80;25.65;;;;;;;18.16;100.00;101046.03;4986154;28;20059;-81
2022/07/23 03:05:15;;;;;;;27.45;25.20;;;;;;;18.31;100.00;101038.16;4978690;28;20069;-82
2022/07/23 03:07:43;;;;;;;25.73;23.48;;;;;;;18.02;100.00;101040.19;4981246;28;20054;-83
2022/07/23 03:10:12;;;;;;;26.95;24.50;;;;;;;18.07;100.00;101037.56;4989551;28;20405;-83
2022/07/23 03:12:39;;;;;;;26.35;24.13;;;;;;;18.19;100.00;101045.53;4976331;28;20047;-86
2022/07/23 03:15:07;;;;;;;27.65;24.90;;;;;;;18.13;100.00;101043.84;4985442;28;20050;-82
2022/07/23 03:17:35;;;;;;;25.73;23.17;;;;;;;17.91;100.00;101051.84;4982561;28;20467;-83
2022/07/23 03:20:03;;;;;;;27.50;24.88;;;;;;;18.29;100.00;101051.03;4978247;28;20053;-82
2022/07/23 03:22:31;;;;;;;26.77;24.23;;;;;;;18.23;100.00;101052.84;4983974;28;20031;-83
2022/07/23 03:25:00;;;;;;;26.73;24.17;;;;;;;17.96;100.00;101049.22;4982123;28;20486;-83
2022/07/23 03:27:29;;;;;;;26.80;24.52;;;;;;;18.55;100.00;101052.19;4984091;28;20078;-84
2022/07/23 03:29:59;;;;;;;27.40;25.30;;;;;;;18.67;100.00;101043.94;4981057;28;20038;-83
2022/07/23 03:32:26;;;;;;;25.80;23.70;;;;;;;19.11;100.00;101044.72;4981119;28;20054;-83
2022/07/23 03:34:54;;;;;;;25.85;23.52;;;;;;;19.17;100.00;101048.28;4976733;28;20047;-83
2022/07/23 03:37:22;;;;;;;26.00;24.00;;;;;;;19.38;100.00;101052.78;4982737;28;20057;-83
2022/07/23 03:39:51;;;;;;;27.42;25.00;;;;;;;19.42;100.00;101059.25;4980102;28;20475;-83
2022/07/23 03:42:19;;;;;;;40.22;25.80;;;;;;;19.57;100.00;101060.47;4979064;28;20054;-83
2022/07/23 03:44:46;;;;;;;28.45;26.35;;;;;;;19.48;100.00;101059.31;4977695;28;20051;-82
2022/07/23 03:47:13;;;;;;;26.77;24.33;;;;;;;19.38;100.00;101060.84;4929424;28;20113;-83
2022/07/23 03:49:40;;;;;;;26.92;24.67;;;;;;;19.44;100.00;101061.72;4928838;28;20050;-84
2022/07/23 03:52:07;;;;;;;27.25;24.90;;;;;;;19.75;100.00;101064.69;4981183;28;20138;-83
2022/07/23 03:54:33;;;;;;;27.40;25.00;;;;;;;19.82;100.00;101058.00;4978083;28;20051;-83
2022/07/23 03:57:01;;;;;;;28.48;25.80;;;;;;;19.70;100.00;101060.06;4984760;28;20067;-83
2022/07/23 03:59:29;;;;;;;28.25;25.85;;;;;;;19.69;100.00;101058.44;4980550;28;20129;-83
2022/07/23 04:01:56;;;;;;;26.65;24.02;;;;;;;19.94;100.00;101059.69;4977681;28;20506;-83
2022/07/23 04:04:23;;;;;;;27.02;24.67;;;;;;;19.96;100.00;101061.03;4983213;28;20059;-82
2022/07/23 04:06:50;;;;;;;26.98;24.88;;;;;;;19.86;100.00;101058.28;4981138;28;20495;-83
2022/07/23 04:09:16;;;;;;;26.50;24.40;;;;;;;20.06;100.00;101071.91;4980850;28;20419;-83
2022/07/23 04:11:44;;;;;;;26.77;24.58;;;;;;;20.41;100.00;101075.06;4925084;28;20057;-82
2022/07/23 04:14:11;;;;;;;27.08;24.80;;;;;;;20.23;100.00;101069.03;4980307;28;20118;-83
2022/07/23 04:16:39;;;;;;;27.45;25.08;;;;;;;20.35;100.00;101072.31;4976047;28;20046;-82
2022/07/23 04:19:06;;;;;;;28.67;25.95;;;;;;;20.61;100.00;101075.19;4983156;28;20065;-83
2022/07/23 04:21:34;;;;;;;27.02;24.80;;;;;;;20.48;100.00;101081.81;4976357;28;20054;-83
2022/07/23 04:24:04;;;;;;;25.83;23.67;;;;;;;20.49;100.00;101080.75;4973909;28;20047;-82
2022/07/23 04:26:31;;;;;;;26.85;24.70;;;;;;;20.74;100.00;101077.38;4974000;28;20106;-83
2022/07/23 04:28:58;;;;;;;27.27;24.95;;;;;;;20.91;100.00;101085.25;4980680;28;20055;-83
2022/07/23 04:31:25;;;;;;;28.05;25.75;;;;;;;20.94;100.00;101076.63;4984275;28;20055;-83
2022/07/23 04:33:53;;;;;;;26.77;24.35;;;;;;;21.01;100.00;101081.78;4978203;28;20073;-85
2022/07/23 04:36:20;;;;;;;27.02;24.45;;;;;;;20.96;100.00;101084.44;4979219;28;20046;-83
2022/07/23 04:38:47;;;;;;;27.30;25.00;;;;;;;20.98;100.00;101085.00;4979593;28;20109;-82
2022/07/23 04:41:14;;;;;;;27.23;24.95;;;;;;;21.13;100.00;101078.81;4976756;28;20058;-83
2022/07/23 04:43:45;;;;;;;25.92;23.65;;;;;;;21.29;100.00;101080.47;4979142;28;20113;-82
2022/07/23 04:46:14;;;;;;;26.80;24.50;;;;;;;21.62;100.00;101081.84;4977742;28;20399;-85
2022/07/23 04:48:42;;;;;;;27.00;24.65;;;;;;;21.50;100.00;101076.72;4977421;28;20051;-84
2022/07/23 04:51:10;;;;;;;26.75;24.38;;;;;;;21.55;100.00;101092.13;4976213;28;20113;-83
2022/07/23 04:53:38;;;;;;;25.67;23.42;;;;;;;21.71;100.00;101092.94;4974426;28;20054;-83
2022/07/23 04:56:07;;;;;;;25.60;23.50;;;;;;;21.81;100.00;101089.41;4975173;28;20466;-82
2022/07/23 04:58:33;;;;;;;25.65;23.65;;;;;;;21.99;100.00;101102.38;4973415;28;20074;-83
2022/07/23 05:01:00;;;;;;;26.40;24.20;;;;;;;22.07;100.00;101101.00;4976392;28;20463;-83
2022/07/23 05:03:27;;;;;;;25.70;23.40;;;;;;;22.03;100.00;101099.91;4974338;28;20053;-84
2022/07/23 05:05:54;;;;;;;25.10;23.00;;;;;;;22.26;100.00;101109.38;4977777;28;20051;-82
2022/07/23 05:08:23;;;;;;;25.80;23.50;;;;;;;22.32;100.00;101117.19;4976738;28;20043;-83
2022/07/23 05:10:52;;;;;;;27.13;24.70;;;;;;;22.42;100.00;101113.66;4973925;28;20047;-85
2022/07/23 05:13:21;;;;;;;26.95;24.75;;;;;;;22.73;100.00;101119.78;4978016;28;20062;-83
2022/07/23 05:15:48;;;;;;;27.73;25.10;;;;;;;22.60;100.00;101106.81;4980890;28;20050;-83
2022/07/23 05:18:15;;;;;;;27.60;24.80;;;;;;;22.81;100.00;101116.50;4975823;28;20043;-82
2022/07/23 05:20:45;;;;;;;27.77;25.52;;;;;;;22.90;99.49;101121.31;4972498;28;20134;-82
2022/07/23 05:23:12;;;;;;;27.25;24.83;;;;;;;23.09;96.13;101128.56;4974809;28;20042;-84
2022/07/23 05:25:40;;;;;;;27.23;24.80;;;;;;;23.07;96.12;101121.81;4973605;28;20467;-82
2022/07/23 05:28:09;;;;;;;26.90;24.58;;;;;;;23.43;95.33;101125.09;4982208;28;20399;-85
2022/07/23 05:30:36;;;;;;;27.15;24.92;;;;;;;23.36;95.17;101123.78;4969918;28;20057;-81
2022/07/23 05:33:04;;;;;;;27.13;25.08;;;;;;;23.88;94.50;101123.13;4921107;28;20126;-82
2022/07/23 05:35:30;;;;;;;26.38;24.48;;;;;;;23.95;90.55;101117.38;4953017;28;20395;-83
2022/07/23 05:37:58;;;;;;;25.67;23.40;;;;;;;26.01;93.38;101120.59;4971550;28;20504;-84
2022/07/23 05:40:25;;;;;;;26.67;24.38;;;;;;;26.08;89.72;101114.75;4975166;28;20050;-85
2022/07/23 05:42:53;;;;;;;27.42;25.33;;;;;;;26.55;77.72;101117.44;4974480;28;20043;-82
2022/07/23 05:45:20;;;;;;;27.13;24.70;;;;;;;26.68;82.43;101116.59;4974242;28;20051;-82
2022/07/23 05:47:49;;;;;;;28.08;25.33;;;;;;;26.62;70.31;101126.00;4974335;28;20051;-82
2022/07/23 05:50:17;;;;;;;26.52;24.42;;;;;;;26.88;78.52;101123.53;4973786;28;20082;-83
2022/07/23 05:52:44;;;;;;;27.27;24.85;;;;;;;27.02;67.50;101127.06;4972756;28;20101;-83
2022/07/23 05:55:13;;;;;;;32.47;29.27;;;;;;;26.65;77.27;101123.47;4975745;28;20105;-82
2022/07/23 05:57:40;;;;;;;27.90;25.52;;;;;;;26.50;67.78;101124.56;4971973;28;20455;-81
2022/07/23 06:00:11;;;;;;;27.48;24.85;;;;;;;26.79;74.86;101128.09;4950111;28;20051;-81
2022/07/23 06:02:39;;;;;;;30.42;27.17;;;;;;;27.31;71.88;101132.13;4976774;28;20485;-81
2022/07/23 06:05:08;;;;;;;26.90;24.50;;;;;;;27.59;69.06;101124.63;4968159;28;20075;-81
2022/07/23 06:07:36;;;;;;;27.13;25.00;;;;;;;27.91;67.62;101114.56;4969562;28;20126;-81
2022/07/23 06:10:03;;;;;;;26.75;24.52;;;;;;;28.15;64.43;101121.59;4965617;28;20499;-82
2022/07/23 06:12:30;;;;;;;26.23;23.92;;;;;;;27.72;65.57;101116.69;4967429;28;20082;-83
2022/07/23 06:14:59;;;;;;;26.88;24.58;;;;;;;27.95;63.66;101112.81;4969904;28;20050;-82
2022/07/23 06:17:29;;;;;;;26.83;24.20;;;;;;;27.23;61.16;101116.50;4976685;28;20050;-83
2022/07/23 06:19:57;;;;;;;26.33;24.13;;;;;;;26.99;63.67;101118.66;4973703;28;20062;-83
2022/07/23 06:22:25;;;;;;;28.08;25.15;;;;;;;26.90;63.13;101113.13;4973782;28;20443;-82
2022/07/23 06:24:53;;;;;;;38.20;29.10;;;;;;;26.89;63.03;101111.53;4974122;28;20051;-82
2022/07/23 06:27:21;;;;;;;27.90;25.05;;;;;;;27.08;60.74;101122.25;4975679;28;20415;-83
2022/07/23 06:29:48;;;;;;;30.02;27.27;;;;;;;27.09;59.13;101121.97;4977118;28;20407;-83
2022/07/23 06:32:16;;;;;;;26.95;24.80;;;;;;;27.32;60.14;101122.84;4976924;28;20050;-84
2022/07/23 06:34:44;;;;;;;28.67;25.30;;;;;;;27.43;57.97;101125.31;4977777;28;20047;-83
2022/07/23 06:37:13;;;;;;;29.50;26.83;;;;;;;27.59;57.54;101129.28;4982034;28;20062;-81
2022/07/23 06:39:41;;;;;;;28.98;26.40;;;;;;;27.71;56.50;101120.53;4975807;28;20487;-81
2022/07/23 06:42:10;;;;;;;27.25;24.83;;;;;;;27.74;55.31;101125.34;4978336;28;20055;-84
2022/07/23 06:44:39;;;;;;;28.63;26.38;;;;;;;28.01;55.59;101122.50;4979348;28;20049;-82
2022/07/23 06:47:06;;;;;;;28.33;25.83;;;;;;;28.41;59.17;101118.97;4977361;28;20051;-84
2022/07/23 06:49:34;;;;;;;28.70;26.20;;;;;;;28.66;54.13;101115.53;4979721;28;20047;-82
2022/07/23 06:52:03;;;;;;;29.05;26.30;;;;;;;28.75;54.59;101116.34;4982320;28;20081;-81
2022/07/23 06:54:40;;;;;;;28.98;26.23;;;;;;;28.80;54.84;101115.38;4978204;28;20047;-81
2022/07/23 06:57:11;;;;;;;28.73;25.92;;;;;;;28.78;52.01;101117.63;4976821;28;20106;-84
2022/07/23 06:59:40;;;;;;;28.13;25.30;;;;;;;28.74;48.64;101120.19;4970429;28;20047;-83
2022/07/23 07:02:07;;;;;;;28.58;25.73;;;;;;;28.53;55.65;101120.00;4975310;28;20055;-83
2022/07/23 07:04:35;;;;;;;28.17;25.40;;;;;;;28.77;51.98;101125.00;4974995;28;20054;-83
2022/07/23 07:07:04;;;;;;;27.83;25.08;;;;;;;29.00;56.30;101127.63;4976956;28;20054;-83
2022/07/23 07:09:31;;;;;;;29.25;25.88;;;;;;;28.93;51.57;101122.66;4977543;28;20054;-83
2022/07/23 07:12:08;;;;;;;28.27;25.50;;;;;;;29.15;49.86;101124.44;4980170;28;20042;-82
2022/07/23 07:14:36;;;;;;;27.02;24.38;;;;;;;29.18;52.75;101123.00;4976640;28;20054;-82
2022/07/23 07:17:03;;;;;;;29.08;25.02;;;;;;;29.12;48.02;101125.09;4972299;28;20054;-83
2022/07/23 07:19:29;;;;;;;26.92;24.13;;;;;;;29.36;50.41;101123.81;4974026;28;20050;-83
2022/07/23 07:21:57;;;;;;;27.50;24.77;;;;;;;29.82;48.55;101114.88;4977017;28;20062;-81
2022/07/23 07:24:25;;;;;;;27.00;24.48;;;;;;;29.89;45.41;101120.66;4977415;28;20062;-84
2022/07/23 07:26:52;;;;;;;27.50;24.85;;;;;;;29.87;49.23;101113.91;4972544;28;20062;-84
2022/07/23 07:29:19;;;;;;;27.58;25.05;;;;;;;30.09;49.49;101121.09;4977407;28;20057;-84
2022/07/23 07:31:46;;;;;;;29.33;26.13;;;;;;;30.34;47.53;101122.91;4976312;28;20130;-82
2022/07/23 07:34:14;;;;;;;26.58;24.38;;;;;;;30.48;46.00;101108.19;4975379;28;20055;-83
2022/07/23 07:36:42;;;;;;;27.40;25.02;;;;;;;30.29;44.05;101119.59;4975631;28;20043;-81
2022/07/23 07:39:10;;;;;;;28.83;26.45;;;;;;;30.22;43.79;101100.09;4984294;28;20043;-81
2022/07/23 07:41:38;;;;;;;30.02;27.25;;;;;;;30.46;43.29;101103.03;4978511;28;20054;-84
2022/07/23 07:44:05;;;;;;;29.80;26.52;;;;;;;30.39;42.65;101105.50;4976835;28;20126;-82
2022/07/23 07:46:32;;;;;;;28.83;26.00;;;;;;;30.63;42.10;101104.09;4974888;28;20061;-83
2022/07/23 07:48:59;;;;;;;27.73;25.15;;;;;;;30.76;42.39;101106.56;4976593;28;20491;-85
2022/07/23 07:51:28;;;;;;;27.40;24.80;;;;;;;30.89;41.98;101107.44;4977729;28;20071;-84
2022/07/23 07:53:55;;;;;;;28.52;25.92;;;;;;;30.79;40.72;101102.38;4978332;28;20535;-82
2022/07/23 07:56:23;;;;;;;26.92;24.83;;;;;;;31.10;41.40;101101.97;4975135;28;20059;-84
2022/07/23 07:58:52;;;;;;;45.65;27.42;;;;;;;30.70;45.55;101091.44;4976036;28;20515;-83
2022/07/23 08:01:20;;;;;;;29.65;26.65;;;;;;;31.45;41.93;101088.78;4977670;28;20474;-82
2022/07/23 08:03:48;;;;;;;28.45;25.80;;;;;;;31.38;41.32;101090.44;4980345;28;20522;-84
2022/07/23 08:06:15;;;;;;;28.17;25.77;;;;;;;31.89;38.00;101088.28;4975647;28;20043;-84
2022/07/23 08:09:01;;;;;;;;;;;;;;;;;;;;;
2022/07/23 08:12:26;;;;;;;;;;;;;;;;;;;;;
2022/07/23 08:14:53;;;;;;;30.07;27.17;;;;;;;32.16;39.70;101081.34;4978044;28;20130;-82
2022/07/23 08:17:20;;;;;;;29.92;27.02;;;;;;;32.54;36.43;101075.50;4979822;28;20047;-82
2022/07/23 08:19:46;;;;;;;29.17;26.80;;;;;;;32.56;34.66;101080.66;4976543;28;20065;-81
2022/07/23 08:22:13;;;;;;;28.92;26.52;;;;;;;32.49;36.58;101083.19;4976595;28;20490;-83
2022/07/23 08:24:40;;;;;;;29.48;26.98;;;;;;;32.68;36.27;101082.56;4976221;28;20046;-84
2022/07/23 08:27:08;;;;;;;28.70;26.17;;;;;;;32.75;37.37;101080.03;4979206;28;20455;-82
2022/07/23 08:29:34;;;;;;;27.60;25.15;;;;;;;32.73;38.25;101065.84;4979228;28;20058;-84
2022/07/23 08:32:03;;;;;;;28.33;26.02;;;;;;;32.27;40.06;101077.00;4978145;28;20054;-82
2022/07/23 08:34:30;;;;;;;30.13;27.42;;;;;;;31.68;42.13;101074.63;4978129;28;20069;-84
2022/07/23 08:36:57;;;;;;;29.38;26.77;;;;;;;32.66;37.52;101071.13;4975965;28;20051;-82
2022/07/23 08:39:23;;;;;;;29.77;27.30;;;;;;;32.50;37.50;101065.53;4976848;28;20046;-83
2022/07/23 08:41:51;;;;;;;29.55;26.95;;;;;;;33.65;34.58;101064.06;4974918;28;20061;-83
2022/07/23 08:44:18;;;;;;;29.58;26.45;;;;;;;33.36;38.00;101068.81;4975059;28;20369;-83
2022/07/23 08:46:45;;;;;;;28.35;25.85;;;;;;;32.23;41.10;101062.34;4976370;28;20051;-84
2022/07/23 08:49:13;;;;;;;30.55;27.55;;;;;;;33.29;35.30;101063.94;4977095;28;20158;-83
2022/07/23 08:51:41;;;;;;;28.35;25.88;;;;;;;33.46;33.00;101062.78;4976689;28;20049;-82
2022/07/23 08:54:08;;;;;;;28.48;25.80;;;;;;;33.62;32.94;101060.09;4976556;28;20404;-84
2022/07/23 08:56:36;;;;;;;30.98;28.30;;;;;;;33.57;33.98;101054.03;4979186;28;20070;-84
2022/07/23 08:59:04;;;;;;;28.30;25.80;;;;;;;33.59;34.01;101052.53;4976148;28;20101;-83
2022/07/23 09:01:31;;;;;;;28.10;25.40;;;;;;;32.68;36.92;101057.81;4975306;28;20059;-82
2022/07/23 09:03:57;;;;;;;27.13;25.02;;;;;;;33.01;38.53;101057.63;4976667;28;20097;-83
2022/07/23 09:06:26;;;;;;;28.58;26.15;;;;;;;32.65;39.17;101044.78;4977986;28;20047;-82
2022/07/23 09:08:53;;;;;;;30.08;27.02;;;;;;;31.92;39.89;101043.69;4981455;28;20051;-81
2022/07/23 09:11:25;;;;;;;29.02;26.25;;;;;;;33.60;35.48;101048.63;4980265;28;20467;-82
2022/07/23 09:13:59;;;;;;;30.05;27.50;;;;;;;34.09;34.84;101045.50;4975298;28;20073;-82
2022/07/23 09:16:28;;;;;;;30.15;27.25;;;;;;;33.59;37.80;101052.53;4974906;28;20053;-83
2022/07/23 09:18:57;;;;;;;28.27;25.83;;;;;;;32.47;37.91;101046.97;4980118;28;20054;-80
2022/07/23 09:21:28;;;;;;;30.13;26.90;;;;;;;32.72;38.84;101043.03;4979033;28;20467;-80
2022/07/23 09:24:00;;;;;;;28.95;26.00;;;;;;;32.76;39.92;101043.13;4974229;28;20085;-84
2022/07/23 09:26:33;;;;;;;28.42;26.13;;;;;;;33.60;33.83;101037.63;4978177;28;20097;-83
2022/07/23 09:29:05;;;;;;;28.48;26.00;;;;;;;34.54;33.27;101035.91;4973890;28;20117;-83
2022/07/23 09:31:35;;;;;;;29.40;27.00;;;;;;;35.20;31.06;101044.34;4975967;28;20130;-84
2022/07/23 09:34:10;;;;;;;28.55;25.95;;;;;;;34.00;35.40;101046.84;4978255;28;20447;-83
2022/07/23 09:36:40;;;;;;;28.05;25.55;;;;;;;33.71;37.27;101043.41;4981053;28;20483;-83
2022/07/23 09:39:08;;;;;;;26.83;24.52;;;;;;;32.18;40.66;101043.34;4975971;28;20062;-84
2022/07/23 09:41:40;;;;;;;29.02;26.42;;;;;;;33.20;34.22;101041.28;4977345;28;20047;-84
2022/07/23 09:44:12;;;;;;;28.38;26.00;;;;;;;33.32;35.13;101034.91;4975664;28;20390;-82
2022/07/23 09:46:40;;;;;;;28.95;26.30;;;;;;;33.10;38.75;101033.50;4975675;28;20129;-82
2022/07/23 09:49:19;;;;;;;30.45;27.00;;;;;;;32.60;39.81;101034.84;4979033;28;20065;-82
2022/07/23 09:51:54;;;;;;;27.55;25.00;;;;;;;33.03;38.02;101031.38;4966892;28;20042;-83
2022/07/23 09:54:33;;;;;;;27.42;24.90;;;;;;;31.13;43.31;101029.97;4980472;28;20047;-84
2022/07/23 09:57:04;;;;;;;27.05;24.50;;;;;;;33.15;35.93;101026.97;4981164;28;20054;-83
2022/07/23 09:59:33;;;;;;;28.53;25.90;;;;;;;32.78;39.49;101030.66;4987203;28;20051;-83
2022/07/23 10:02:01;;;;;;;27.17;24.75;;;;;;;33.20;38.58;101018.47;4979844;28;20563;-84
2022/07/23 10:04:29;;;;;;;29.52;27.23;;;;;;;32.48;39.82;101018.38;4979385;28;20395;-82
2022/07/23 10:07:00;;;;;;;28.35;25.90;;;;;;;32.88;36.14;101006.53;4979154;28;20074;-83
2022/07/23 10:09:30;;;;;;;27.38;24.92;;;;;;;35.05;31.21;100999.13;4965855;28;20054;-83
2022/07/23 10:12:11;;;;;;;26.40;23.77;;;;;;;35.54;28.90;101001.19;4980635;28;20062;-83
2022/07/23 10:14:38;;;;;;;25.98;23.48;;;;;;;36.09;28.24;101003.63;4979148;28;20046;-83
2022/07/23 10:17:05;;;;;;;27.98;25.20;;;;;;;36.40;28.01;100999.69;4981193;28;20057;-82
2022/07/23 10:19:33;;;;;;;28.17;25.73;;;;;;;35.90;29.22;100999.78;4982019;28;20050;-82
2022/07/23 10:22:03;;;;;;;27.95;25.40;;;;;;;36.20;28.40;100996.28;4982918;28;20051;-83
2022/07/23 10:24:44;;;;;;;30.02;27.55;;;;;;;36.66;26.23;100996.91;4979951;28;20051;-85
2022/07/23 10:27:32;;;;;;;29.42;26.85;;;;;;;36.85;27.41;100984.84;4979918;28;20468;-83
2022/07/23 10:30:05;;;;;;;29.63;27.23;;;;;;;36.80;28.19;100989.94;4982885;28;20055;-83
2022/07/23 10:32:41;;;;;;;29.20;26.67;;;;;;;37.11;25.82;100985.94;4980361;28;20050;-84
2022/07/23 10:35:19;;;;;;;32.33;29.85;;;;;;;35.97;31.35;100977.78;4977981;28;20395;-82
2022/07/23 10:37:52;;;;;;;31.48;29.00;;;;;;;36.18;26.48;100970.97;4981938;28;20133;-82
2022/07/23 10:40:22;;;;;;;34.10;31.30;;;;;;;37.09;25.34;100964.16;4980568;28;20046;-84
2022/07/23 10:42:51;;;;;;;33.05;30.45;;;;;;;37.16;24.90;100969.00;4981194;28;20062;-84
2022/07/23 10:45:27;;;;;;;31.63;28.88;;;;;;;37.49;24.38;100962.56;4978635;28;20058;-84
2022/07/23 10:47:54;;;;;;;27.52;25.17;;;;;;;36.91;28.50;100960.41;4979371;28;20055;-83
2022/07/23 10:50:24;;;;;;;30.75;28.15;;;;;;;34.87;28.49;100966.44;4978883;28;20057;-83
2022/07/23 10:53:15;;;;;;;28.90;25.85;;;;;;;36.98;25.09;100945.84;4974218;28;20047;-84
2022/07/23 10:55:51;;;;;;;28.88;26.40;;;;;;;35.45;31.68;100959.19;4980803;28;20061;-82
2022/07/23 10:58:21;;;;;;;28.08;25.77;;;;;;;36.54;27.27;100954.88;4976929;28;20057;-85
2022/07/23 11:00:48;;;;;;;31.35;28.70;;;;;;;34.88;29.65;100962.50;4963966;28;20062;-83
2022/07/23 11:03:37;;;;;;;28.50;26.20;;;;;;;35.16;31.89;100950.44;4976263;28;20050;-82
2022/07/23 11:06:07;;;;;;;27.83;25.48;;;;;;;34.18;34.10;100949.66;4977286;28;20058;-83
2022/07/23 11:08:36;;;;;;;30.35;28.05;;;;;;;35.10;32.80;100943.63;4976073;28;20050;-81
2022/07/23 11:11:12;;;;;;;32.40;29.75;;;;;;;33.79;35.61;100942.47;4983938;28;20133;-83
2022/07/23 11:13:41;;;;;;;29.27;26.58;;;;;;;35.14;31.99;100941.72;4981692;28;20061;-84
2022/07/23 11:16:27;;;;;;;29.45;27.13;;;;;;;35.55;31.40;100928.22;4978290;28;20415;-83